sensor_id;sensor_type;location;lat;lon;timestamp;pressure;altitude;pressure_sealevel;temperature;humidity
41632;BME280;37452;51.938;4.624;2022-11-13T00:00:53;78755.91;;;-142.75;100.00
41632;BME280;37452;51.938;4.624;2022-11-13T00:03:19;78730.28;;;-142.75;100.00
41632;BME280;37452;51.938;4.624;2022-11-13T00:05:44;78740.13;;;-142.75;100.00
41632;BME280;37452;51.938;4.624;2022-11-13T00:08:10;78720.44;;;-142.75;100.00
41632;BME280;37452;51.938;4.624;2022-11-13T00:10:35;78706.66;;;-142.75;100.00
41632;BME280;37452;51.938;4.624;2022-11-13T00:13:01;78708.63;;;-142.75;100.00
41632;BME280;37452;51.938;4.624;2022-11-13T00:15:26;78708.63;;;-142.75;100.00
41632;BME280;37452;51.938;4.624;2022-11-13T00:17:51;78724.38;;;-142.75;100.00
41632;BME280;37452;51.938;4.624;2022-11-13T00:20:17;78734.22;;;-142.75;100.00
41632;BME280;37452;51.938;4.624;2022-11-13T00:22:43;78740.13;;;-142.75;100.00
41632;BME280;37452;51.938;4.624;2022-11-13T00:25:08;78744.09;;;-142.75;100.00
41632;BME280;37452;51.938;4.624;2022-11-13T00:27:33;78751.97;;;-142.75;100.00
41632;BME280;37452;51.938;4.624;2022-11-13T00:29:59;78744.09;;;-142.75;100.00
41632;BME280;37452;51.938;4.624;2022-11-13T00:32:24;78748.03;;;-142.75;100.00
41632;BME280;37452;51.938;4.624;2022-11-13T00:34:50;78767.72;;;-142.75;100.00
41632;BME280;37452;51.938;4.624;2022-11-13T00:37:15;78746.03;;;-142.75;100.00
41632;BME280;37452;51.938;4.624;2022-11-13T00:39:41;78726.34;;;-142.75;100.00
41632;BME280;37452;51.938;4.624;2022-11-13T00:42:06;78700.75;;;-142.75;100.00
41632;BME280;37452;51.938;4.624;2022-11-13T00:44:31;78700.75;;;-142.75;100.00
41632;BME280;37452;51.938;4.624;2022-11-13T00:46:57;78700.75;;;-142.75;100.00
41632;BME280;37452;51.938;4.624;2022-11-13T00:49:22;78686.97;;;-142.75;100.00
41632;BME280;37452;51.938;4.624;2022-11-13T00:51:47;78694.84;;;-142.75;100.00
41632;BME280;37452;51.938;4.624;2022-11-13T00:54:12;78692.88;;;-142.75;100.00
41632;BME280;37452;51.938;4.624;2022-11-13T00:56:38;78667.25;;;-142.75;100.00
41632;BME280;37452;51.938;4.624;2022-11-13T00:59:03;78657.41;;;-142.75;100.00
41632;BME280;37452;51.938;4.624;2022-11-13T01:01:28;78633.78;;;-142.75;100.00
41632;BME280;37452;51.938;4.624;2022-11-13T01:03:54;78633.78;;;-142.75;100.00
41632;BME280;37452;51.938;4.624;2022-11-13T01:06:22;78653.47;;;-142.75;100.00
41632;BME280;37452;51.938;4.624;2022-11-13T01:08:48;78685.00;;;-142.75;100.00
41632;BME280;37452;51.938;4.624;2022-11-13T01:11:15;78667.25;;;-142.75;100.00
41632;BME280;37452;51.938;4.624;2022-11-13T01:13:43;78647.56;;;-142.75;100.00
41632;BME280;37452;51.938;4.624;2022-11-13T01:16:10;78629.84;;;-142.75;100.00
41632;BME280;37452;51.938;4.624;2022-11-13T01:18:36;78633.78;;;-142.75;100.00
41632;BME280;37452;51.938;4.624;2022-11-13T01:21:07;78629.84;;;-142.75;100.00
41632;BME280;37452;51.938;4.624;2022-11-13T01:23:35;78625.91;;;-142.75;100.00
41632;BME280;37452;51.938;4.624;2022-11-13T01:26:09;78618.03;;;-142.75;100.00
41632;BME280;37452;51.938;4.624;2022-11-13T01:28:35;78612.13;;;-142.75;100.00
41632;BME280;37452;51.938;4.624;2022-11-13T01:31:04;78604.25;;;-142.75;100.00
41632;BME280;37452;51.938;4.624;2022-11-13T01:33:30;78598.34;;;-142.75;100.00
41632;BME280;37452;51.938;4.624;2022-11-13T01:36:01;78590.47;;;-142.75;100.00
41632;BME280;37452;51.938;4.624;2022-11-13T01:38:26;78596.38;;;-142.75;100.00
41632;BME280;37452;51.938;4.624;2022-11-13T01:40:52;78600.31;;;-142.75;100.00
41632;BME280;37452;51.938;4.624;2022-11-13T01:43:23;78600.31;;;-142.75;100.00
41632;BME280;37452;51.938;4.624;2022-11-13T01:48:35;78627.88;;;-142.75;100.00
41632;BME280;37452;51.938;4.624;2022-11-13T01:51:11;78641.66;;;-142.75;100.00
41632;BME280;37452;51.938;4.624;2022-11-13T01:53:40;78657.41;;;-142.75;100.00
41632;BME280;37452;51.938;4.624;2022-11-13T01:56:06;78659.38;;;-142.75;100.00
41632;BME280;37452;51.938;4.624;2022-11-13T01:58:32;78692.88;;;-142.75;100.00
41632;BME280;37452;51.938;4.624;2022-11-13T02:00:58;78696.81;;;-142.75;100.00
41632;BME280;37452;51.938;4.624;2022-11-13T02:03:23;78698.78;;;-142.75;100.00
41632;BME280;37452;51.938;4.624;2022-11-13T02:05:49;78696.81;;;-142.75;100.00
41632;BME280;37452;51.938;4.624;2022-11-13T02:08:15;78706.66;;;-142.75;100.00
41632;BME280;37452;51.938;4.624;2022-11-13T02:10:41;78704.69;;;-142.75;100.00
41632;BME280;37452;51.938;4.624;2022-11-13T02:13:08;78732.25;;;-142.75;100.00
41632;BME280;37452;51.938;4.624;2022-11-13T02:15:34;78744.09;;;-142.75;100.00
41632;BME280;37452;51.938;4.624;2022-11-13T02:18:00;78755.91;;;-142.75;100.00
41632;BME280;37452;51.938;4.624;2022-11-13T02:23:36;78779.53;;;-142.75;100.00
41632;BME280;37452;51.938;4.624;2022-11-13T02:26:06;78787.41;;;-142.75;100.00
41632;BME280;37452;51.938;4.624;2022-11-13T02:28:33;78767.72;;;-142.75;100.00
41632;BME280;37452;51.938;4.624;2022-11-13T02:31:08;78763.78;;;-142.75;100.00
41632;BME280;37452;51.938;4.624;2022-11-13T02:33:34;78751.97;;;-142.75;100.00
41632;BME280;37452;51.938;4.624;2022-11-13T02:36:00;78744.09;;;-142.75;100.00
41632;BME280;37452;51.938;4.624;2022-11-13T02:38:26;78748.03;;;-142.75;100.00
41632;BME280;37452;51.938;4.624;2022-11-13T02:40:52;78748.03;;;-142.75;100.00
41632;BME280;37452;51.938;4.624;2022-11-13T02:43:17;78730.28;;;-142.75;100.00
41632;BME280;37452;51.938;4.624;2022-11-13T02:45:43;78716.50;;;-142.75;100.00
41632;BME280;37452;51.938;4.624;2022-11-13T02:48:08;78742.09;;;-142.75;100.00
41632;BME280;37452;51.938;4.624;2022-11-13T02:50:36;78767.72;;;-142.75;100.00
41632;BME280;37452;51.938;4.624;2022-11-13T02:53:02;78775.59;;;-142.75;100.00
41632;BME280;37452;51.938;4.624;2022-11-13T02:55:28;78791.34;;;-142.75;100.00
41632;BME280;37452;51.938;4.624;2022-11-13T02:57:53;78783.47;;;-142.75;100.00
41632;BME280;37452;51.938;4.624;2022-11-13T03:00:19;78775.59;;;-142.75;100.00
41632;BME280;37452;51.938;4.624;2022-11-13T03:02:45;78773.63;;;-142.75;100.00
41632;BME280;37452;51.938;4.624;2022-11-13T03:05:10;78775.59;;;-142.75;100.00
41632;BME280;37452;51.938;4.624;2022-11-13T03:07:36;78783.47;;;-142.75;100.00
41632;BME280;37452;51.938;4.624;2022-11-13T03:10:01;78783.47;;;-142.75;100.00
41632;BME280;37452;51.938;4.624;2022-11-13T03:12:27;78787.41;;;-142.75;100.00
41632;BME280;37452;51.938;4.624;2022-11-13T03:14:52;78769.69;;;-142.75;100.00
41632;BME280;37452;51.938;4.624;2022-11-13T03:17:18;78753.94;;;-142.75;100.00
41632;BME280;37452;51.938;4.624;2022-11-13T03:19:43;78759.84;;;-142.75;100.00
41632;BME280;37452;51.938;4.624;2022-11-13T03:22:09;78775.59;;;-142.75;100.00
41632;BME280;37452;51.938;4.624;2022-11-13T03:24:34;78809.06;;;-142.75;100.00
41632;BME280;37452;51.938;4.624;2022-11-13T03:27:00;78834.69;;;-142.75;100.00
41632;BME280;37452;51.938;4.624;2022-11-13T03:29:26;78870.13;;;-142.75;100.00
41632;BME280;37452;51.938;4.624;2022-11-13T03:31:51;78878.00;;;-142.75;100.00
41632;BME280;37452;51.938;4.624;2022-11-13T03:34:17;78866.19;;;-142.75;100.00
41632;BME280;37452;51.938;4.624;2022-11-13T03:36:42;78846.50;;;-142.75;100.00
41632;BME280;37452;51.938;4.624;2022-11-13T03:39:08;78838.63;;;-142.75;100.00
41632;BME280;37452;51.938;4.624;2022-11-13T03:41:34;78818.91;;;-142.75;100.00
41632;BME280;37452;51.938;4.624;2022-11-13T03:43:59;78795.28;;;-142.75;100.00
41632;BME280;37452;51.938;4.624;2022-11-13T03:46:25;78779.53;;;-142.75;100.00
41632;BME280;37452;51.938;4.624;2022-11-13T03:48:50;78775.59;;;-142.75;100.00
41632;BME280;37452;51.938;4.624;2022-11-13T03:51:16;78767.72;;;-142.75;100.00
41632;BME280;37452;51.938;4.624;2022-11-13T03:53:41;78769.69;;;-142.75;100.00
41632;BME280;37452;51.938;4.624;2022-11-13T03:56:07;78763.78;;;-142.75;100.00
41632;BME280;37452;51.938;4.624;2022-11-13T03:58:32;78775.59;;;-142.75;100.00
41632;BME280;37452;51.938;4.624;2022-11-13T04:00:58;78773.63;;;-142.75;100.00
41632;BME280;37452;51.938;4.624;2022-11-13T04:03:23;78771.66;;;-142.75;100.00
41632;BME280;37452;51.938;4.624;2022-11-13T04:05:49;78773.63;;;-142.75;100.00
41632;BME280;37452;51.938;4.624;2022-11-13T04:08:16;78763.78;;;-142.75;100.00
41632;BME280;37452;51.938;4.624;2022-11-13T04:10:42;78757.88;;;-142.75;100.00
41632;BME280;37452;51.938;4.624;2022-11-13T04:13:08;78765.75;;;-142.75;100.00
41632;BME280;37452;51.938;4.624;2022-11-13T04:15:33;78763.78;;;-142.75;100.00
41632;BME280;37452;51.938;4.624;2022-11-13T04:17:59;78750.00;;;-142.75;100.00
41632;BME280;37452;51.938;4.624;2022-11-13T04:20:25;78759.84;;;-142.75;100.00
41632;BME280;37452;51.938;4.624;2022-11-13T04:22:52;78771.66;;;-142.75;100.00
41632;BME280;37452;51.938;4.624;2022-11-13T04:25:18;78765.75;;;-142.75;100.00
41632;BME280;37452;51.938;4.624;2022-11-13T04:27:44;78755.91;;;-142.75;100.00
41632;BME280;37452;51.938;4.624;2022-11-13T04:30:09;78757.88;;;-142.75;100.00
41632;BME280;37452;51.938;4.624;2022-11-13T04:32:35;78751.97;;;-142.75;100.00
41632;BME280;37452;51.938;4.624;2022-11-13T04:35:01;78740.13;;;-142.75;100.00
41632;BME280;37452;51.938;4.624;2022-11-13T04:37:26;78744.09;;;-142.75;100.00
41632;BME280;37452;51.938;4.624;2022-11-13T04:39:52;78740.13;;;-142.75;100.00
41632;BME280;37452;51.938;4.624;2022-11-13T04:42:17;78744.09;;;-142.75;100.00
41632;BME280;37452;51.938;4.624;2022-11-13T04:45:01;78746.03;;;-142.75;100.00
41632;BME280;37452;51.938;4.624;2022-11-13T04:47:27;78742.09;;;-142.75;100.00
41632;BME280;37452;51.938;4.624;2022-11-13T04:49:52;78742.09;;;-142.75;100.00
41632;BME280;37452;51.938;4.624;2022-11-13T04:52:18;78748.03;;;-142.75;100.00
41632;BME280;37452;51.938;4.624;2022-11-13T04:54:44;78742.09;;;-142.75;100.00
41632;BME280;37452;51.938;4.624;2022-11-13T04:57:09;78736.19;;;-142.75;100.00
41632;BME280;37452;51.938;4.624;2022-11-13T04:59:35;78728.31;;;-142.75;100.00
41632;BME280;37452;51.938;4.624;2022-11-13T05:02:00;78720.44;;;-142.75;100.00
41632;BME280;37452;51.938;4.624;2022-11-13T05:04:26;78706.66;;;-142.75;100.00
41632;BME280;37452;51.938;4.624;2022-11-13T05:06:51;78704.69;;;-142.75;100.00
41632;BME280;37452;51.938;4.624;2022-11-13T05:09:17;78686.97;;;-142.75;100.00
41632;BME280;37452;51.938;4.624;2022-11-13T05:11:42;78685.00;;;-142.75;100.00
41632;BME280;37452;51.938;4.624;2022-11-13T05:14:10;78669.25;;;-142.75;100.00
41632;BME280;37452;51.938;4.624;2022-11-13T05:16:36;78667.25;;;-142.75;100.00
41632;BME280;37452;51.938;4.624;2022-11-13T05:19:02;78671.22;;;-142.75;100.00
41632;BME280;37452;51.938;4.624;2022-11-13T05:21:35;78681.06;;;-142.75;100.00
41632;BME280;37452;51.938;4.624;2022-11-13T05:24:02;78685.00;;;-142.75;100.00
41632;BME280;37452;51.938;4.624;2022-11-13T05:26:28;78692.88;;;-142.75;100.00
41632;BME280;37452;51.938;4.624;2022-11-13T05:28:57;78696.81;;;-142.75;100.00
41632;BME280;37452;51.938;4.624;2022-11-13T05:31:24;78706.66;;;-142.75;100.00
41632;BME280;37452;51.938;4.624;2022-11-13T05:33:49;78728.31;;;-142.75;100.00
41632;BME280;37452;51.938;4.624;2022-11-13T05:36:17;78730.28;;;-142.75;100.00
41632;BME280;37452;51.938;4.624;2022-11-13T05:38:42;78724.38;;;-142.75;100.00
41632;BME280;37452;51.938;4.624;2022-11-13T05:41:12;78706.66;;;-142.75;100.00
41632;BME280;37452;51.938;4.624;2022-11-13T05:43:38;78700.75;;;-142.75;100.00
41632;BME280;37452;51.938;4.624;2022-11-13T05:46:26;78704.69;;;-142.75;100.00
41632;BME280;37452;51.938;4.624;2022-11-13T05:48:57;78714.53;;;-142.75;100.00
41632;BME280;37452;51.938;4.624;2022-11-13T05:51:25;78736.19;;;-142.75;100.00
41632;BME280;37452;51.938;4.624;2022-11-13T05:53:52;78742.09;;;-142.75;100.00
41632;BME280;37452;51.938;4.624;2022-11-13T05:56:18;78738.16;;;-142.75;100.00
41632;BME280;37452;51.938;4.624;2022-11-13T05:58:45;78736.19;;;-142.75;100.00
41632;BME280;37452;51.938;4.624;2022-11-13T06:01:18;78726.34;;;-142.75;100.00
41632;BME280;37452;51.938;4.624;2022-11-13T06:03:44;78724.38;;;-142.75;100.00
41632;BME280;37452;51.938;4.624;2022-11-13T06:06:18;78712.56;;;-142.75;100.00
41632;BME280;37452;51.938;4.624;2022-11-13T06:08:45;78716.50;;;-142.75;100.00
41632;BME280;37452;51.938;4.624;2022-11-13T06:11:13;78698.78;;;-142.75;100.00
41632;BME280;37452;51.938;4.624;2022-11-13T06:13:39;78708.63;;;-142.75;100.00
41632;BME280;37452;51.938;4.624;2022-11-13T06:16:10;78726.34;;;-142.75;100.00
41632;BME280;37452;51.938;4.624;2022-11-13T06:18:37;78708.63;;;-142.75;100.00
41632;BME280;37452;51.938;4.624;2022-11-13T06:21:05;78696.81;;;-142.75;100.00
41632;BME280;37452;51.938;4.624;2022-11-13T06:23:33;78702.72;;;-142.75;100.00
41632;BME280;37452;51.938;4.624;2022-11-13T06:26:03;78685.00;;;-142.75;100.00
41632;BME280;37452;51.938;4.624;2022-11-13T06:28:30;78700.75;;;-142.75;100.00
41632;BME280;37452;51.938;4.624;2022-11-13T06:31:00;78690.91;;;-142.75;100.00
41632;BME280;37452;51.938;4.624;2022-11-13T06:33:27;78694.84;;;-142.75;100.00
41632;BME280;37452;51.938;4.624;2022-11-13T06:35:52;78686.97;;;-142.75;100.00
41632;BME280;37452;51.938;4.624;2022-11-13T06:38:18;78679.09;;;-142.75;100.00
41632;BME280;37452;51.938;4.624;2022-11-13T06:40:43;78688.94;;;-142.75;100.00
41632;BME280;37452;51.938;4.624;2022-11-13T06:43:09;78677.13;;;-142.75;100.00
41632;BME280;37452;51.938;4.624;2022-11-13T06:45:35;78677.13;;;-142.75;100.00
41632;BME280;37452;51.938;4.624;2022-11-13T06:48:00;78677.13;;;-142.75;100.00
41632;BME280;37452;51.938;4.624;2022-11-13T06:50:26;78686.97;;;-142.75;100.00
41632;BME280;37452;51.938;4.624;2022-11-13T06:52:51;78673.19;;;-142.75;100.00
41632;BME280;37452;51.938;4.624;2022-11-13T06:55:17;78681.06;;;-142.75;100.00
41632;BME280;37452;51.938;4.624;2022-11-13T06:57:42;78696.81;;;-142.75;100.00
41632;BME280;37452;51.938;4.624;2022-11-13T07:00:08;78694.84;;;-142.75;100.00
41632;BME280;37452;51.938;4.624;2022-11-13T07:02:34;78692.88;;;-142.75;100.00
41632;BME280;37452;51.938;4.624;2022-11-13T07:04:59;78696.81;;;-142.75;100.00
41632;BME280;37452;51.938;4.624;2022-11-13T07:07:25;78681.06;;;-142.75;100.00
41632;BME280;37452;51.938;4.624;2022-11-13T07:09:50;78681.06;;;-142.75;100.00
41632;BME280;37452;51.938;4.624;2022-11-13T07:12:16;78690.91;;;-142.75;100.00
41632;BME280;37452;51.938;4.624;2022-11-13T07:14:41;78686.97;;;-142.75;100.00
41632;BME280;37452;51.938;4.624;2022-11-13T07:17:07;78681.06;;;-142.75;100.00
41632;BME280;37452;51.938;4.624;2022-11-13T07:19:32;78663.31;;;-142.75;100.00
41632;BME280;37452;51.938;4.624;2022-11-13T07:21:58;78637.72;;;-142.75;100.00
41632;BME280;37452;51.938;4.624;2022-11-13T07:24:23;78627.88;;;-142.75;100.00
41632;BME280;37452;51.938;4.624;2022-11-13T07:26:49;78627.88;;;-142.75;100.00
41632;BME280;37452;51.938;4.624;2022-11-13T07:29:14;78598.34;;;-142.75;100.00
41632;BME280;37452;51.938;4.624;2022-11-13T07:31:40;78592.44;;;-142.75;100.00
41632;BME280;37452;51.938;4.624;2022-11-13T07:34:05;78566.81;;;-142.75;100.00
41632;BME280;37452;51.938;4.624;2022-11-13T07:36:30;78535.31;;;-142.75;100.00
41632;BME280;37452;51.938;4.624;2022-11-13T07:38:56;78503.81;;;-142.75;100.00
41632;BME280;37452;51.938;4.624;2022-11-13T07:41:22;78488.03;;;-142.75;100.00
41632;BME280;37452;51.938;4.624;2022-11-13T07:43:47;78460.47;;;-142.75;100.00
41632;BME280;37452;51.938;4.624;2022-11-13T07:46:13;78440.78;;;-142.75;100.00
41632;BME280;37452;51.938;4.624;2022-11-13T07:48:38;78403.38;;;-142.75;100.00
41632;BME280;37452;51.938;4.624;2022-11-13T07:51:04;78362.00;;;-142.75;100.00
41632;BME280;37452;51.938;4.624;2022-11-13T07:53:29;78322.63;;;-142.75;100.00
41632;BME280;37452;51.938;4.624;2022-11-13T07:55:55;78283.22;;;-142.75;100.00
41632;BME280;37452;51.938;4.624;2022-11-13T07:58:20;78253.69;;;-142.75;100.00
41632;BME280;37452;51.938;4.624;2022-11-13T08:00:46;78232.03;;;-142.75;100.00
41632;BME280;37452;51.938;4.624;2022-11-13T08:03:14;78228.09;;;-142.75;100.00
41632;BME280;37452;51.938;4.624;2022-11-13T08:05:40;78190.69;;;-142.75;100.00
41632;BME280;37452;51.938;4.624;2022-11-13T08:08:06;78170.97;;;-142.75;100.00
41632;BME280;37452;51.938;4.624;2022-11-13T08:10:32;78137.50;;;-142.75;100.00
41632;BME280;37452;51.938;4.624;2022-11-13T08:13:01;78129.63;;;-142.75;100.00
41632;BME280;37452;51.938;4.624;2022-11-13T08:15:30;78129.63;;;-142.75;100.00
41632;BME280;37452;51.938;4.624;2022-11-13T08:17:57;78090.25;;;-142.75;100.00
41632;BME280;37452;51.938;4.624;2022-11-13T08:20:24;78058.72;;;-142.75;100.00
41632;BME280;37452;51.938;4.624;2022-11-13T08:22:50;78017.38;;;-142.75;100.00
41632;BME280;37452;51.938;4.624;2022-11-13T08:25:16;77976.03;;;-142.75;100.00
41632;BME280;37452;51.938;4.624;2022-11-13T08:27:42;77960.28;;;-142.75;100.00
41632;BME280;37452;51.938;4.624;2022-11-13T08:30:08;77928.78;;;-142.75;100.00
41632;BME280;37452;51.938;4.624;2022-11-13T08:32:34;77915.00;;;-142.75;100.00
41632;BME280;37452;51.938;4.624;2022-11-13T08:34:59;77905.13;;;-142.75;100.00
41632;BME280;37452;51.938;4.624;2022-11-13T08:37:25;77909.06;;;-142.75;100.00
41632;BME280;37452;51.938;4.624;2022-11-13T08:39:50;77857.88;;;-142.75;100.00
41632;BME280;37452;51.938;4.624;2022-11-13T08:42:16;77826.38;;;-142.75;100.00
41632;BME280;37452;51.938;4.624;2022-11-13T08:44:41;77794.88;;;-142.75;100.00
41632;BME280;37452;51.938;4.624;2022-11-13T08:47:07;77794.88;;;-142.75;100.00
41632;BME280;37452;51.938;4.624;2022-11-13T08:49:32;77794.88;;;-142.75;100.00
41632;BME280;37452;51.938;4.624;2022-11-13T08:51:58;77783.06;;;-142.75;100.00
41632;BME280;37452;51.938;4.624;2022-11-13T08:54:23;77779.13;;;-142.75;100.00
41632;BME280;37452;51.938;4.624;2022-11-13T08:56:49;77735.81;;;-142.75;100.00
41632;BME280;37452;51.938;4.624;2022-11-13T08:59:15;77680.66;;;-142.75;100.00
41632;BME280;37452;51.938;4.624;2022-11-13T09:01:40;77657.03;;;-142.75;100.00
41632;BME280;37452;51.938;4.624;2022-11-13T09:04:05;77621.59;;;-142.75;100.00
41632;BME280;37452;51.938;4.624;2022-11-13T09:06:31;77582.22;;;-142.75;100.00
41632;BME280;37452;51.938;4.624;2022-11-13T09:08:57;77601.91;;;-142.75;100.00
41632;BME280;37452;51.938;4.624;2022-11-13T09:11:22;77578.28;;;-142.75;100.00
41632;BME280;37452;51.938;4.624;2022-11-13T09:13:51;77534.97;;;-142.75;100.00
41632;BME280;37452;51.938;4.624;2022-11-13T09:16:17;77527.09;;;-142.75;100.00
41632;BME280;37452;51.938;4.624;2022-11-13T09:18:43;77509.38;;;-142.75;100.00
41632;BME280;37452;51.938;4.624;2022-11-13T09:21:08;77517.25;;;-142.75;100.00
41632;BME280;37452;51.938;4.624;2022-11-13T09:23:35;77511.34;;;-142.75;100.00
41632;BME280;37452;51.938;4.624;2022-11-13T09:26:01;77515.28;;;-142.75;100.00
41632;BME280;37452;51.938;4.624;2022-11-13T09:28:27;77489.69;;;-142.75;100.00
41632;BME280;37452;51.938;4.624;2022-11-13T09:30:53;77503.47;;;-142.75;100.00
41632;BME280;37452;51.938;4.624;2022-11-13T09:33:18;77517.25;;;-142.75;100.00
41632;BME280;37452;51.938;4.624;2022-11-13T09:35:43;77527.09;;;-142.75;100.00
41632;BME280;37452;51.938;4.624;2022-11-13T09:38:12;77493.63;;;-142.75;100.00
41632;BME280;37452;51.938;4.624;2022-11-13T09:40:46;77462.13;;;-142.75;100.00
41632;BME280;37452;51.938;4.624;2022-11-13T09:46:05;77434.53;;;-142.75;100.00
41632;BME280;37452;51.938;4.624;2022-11-13T09:48:39;77424.69;;;-142.75;100.00
41632;BME280;37452;51.938;4.624;2022-11-13T09:51:13;77408.94;;;-142.75;100.00
41632;BME280;37452;51.938;4.624;2022-11-13T09:53:40;77440.44;;;-142.75;100.00
41632;BME280;37452;51.938;4.624;2022-11-13T09:56:24;77440.44;;;-142.75;100.00
41632;BME280;37452;51.938;4.624;2022-11-13T10:01:39;77456.22;;;-142.75;100.00
41632;BME280;37452;51.938;4.624;2022-11-13T10:04:10;77440.44;;;-142.75;100.00
41632;BME280;37452;51.938;4.624;2022-11-13T10:12:07;77416.81;;;-142.75;100.00
41632;BME280;37452;51.938;4.624;2022-11-13T10:14:37;77416.81;;;-142.75;100.00
41632;BME280;37452;51.938;4.624;2022-11-13T10:17:32;77405.00;;;-142.75;100.00
41632;BME280;37452;51.938;4.624;2022-11-13T10:20:04;77397.13;;;-142.75;100.00
41632;BME280;37452;51.938;4.624;2022-11-13T10:25:18;77332.16;;;-142.75;100.00
41632;BME280;37452;51.938;4.624;2022-11-13T10:27:49;77288.84;;;-142.75;100.00
41632;BME280;37452;51.938;4.624;2022-11-13T10:30:18;77308.53;;;-142.75;97.80
41632;BME280;37452;51.938;4.624;2022-11-13T10:32:45;77336.09;;;-142.75;97.18
41632;BME280;37452;51.938;4.624;2022-11-13T10:38:08;77326.25;;;-142.75;99.93
41632;BME280;37452;51.938;4.624;2022-11-13T10:40:38;77294.75;;;-142.75;97.27
41632;BME280;37452;51.938;4.624;2022-11-13T10:45:38;77251.44;;;-142.75;96.80
41632;BME280;37452;51.938;4.624;2022-11-13T10:48:04;77206.16;;;-142.75;94.72
41632;BME280;37452;51.938;4.624;2022-11-13T10:50:31;77172.69;;;-142.75;96.04
41632;BME280;37452;51.938;4.624;2022-11-13T10:52:57;77188.44;;;-142.75;97.97
41632;BME280;37452;51.938;4.624;2022-11-13T10:57:59;77129.38;;;-142.75;95.16
41632;BME280;37452;51.938;4.624;2022-11-13T11:00:36;77111.66;;;-142.75;92.56
41632;BME280;37452;51.938;4.624;2022-11-13T11:03:22;77113.63;;;-142.75;92.99
41632;BME280;37452;51.938;4.624;2022-11-13T11:06:02;77121.50;;;-142.75;92.97
41632;BME280;37452;51.938;4.624;2022-11-13T11:08:30;77105.75;;;-142.75;92.82
41632;BME280;37452;51.938;4.624;2022-11-13T11:13:43;77036.84;;;-142.75;89.12
41632;BME280;37452;51.938;4.624;2022-11-13T11:16:13;77078.19;;;-142.75;87.91
41632;BME280;37452;51.938;4.624;2022-11-13T11:18:56;77060.47;;;-142.75;90.44
41632;BME280;37452;51.938;4.624;2022-11-13T11:21:31;77042.75;;;-142.75;88.06
41632;BME280;37452;51.938;4.624;2022-11-13T11:24:11;77066.38;;;-142.75;88.97
41632;BME280;37452;51.938;4.624;2022-11-13T11:26:42;77038.81;;;-142.75;91.14
41632;BME280;37452;51.938;4.624;2022-11-13T11:32:00;77003.38;;;-142.75;86.64
41632;BME280;37452;51.938;4.624;2022-11-13T11:34:45;77003.38;;;-142.75;88.56
41632;BME280;37452;51.938;4.624;2022-11-13T11:37:17;77056.53;;;-142.75;89.39
41632;BME280;37452;51.938;4.624;2022-11-13T11:39:55;77062.44;;;-142.75;90.81
41632;BME280;37452;51.938;4.624;2022-11-13T11:45:28;77070.31;;;-142.75;92.62
41632;BME280;37452;51.938;4.624;2022-11-13T11:47:56;77062.44;;;-142.75;90.93
41632;BME280;37452;51.938;4.624;2022-11-13T11:50:33;77034.88;;;-142.75;91.70
41632;BME280;37452;51.938;4.624;2022-11-13T11:53:19;77046.69;;;-142.75;90.15
41632;BME280;37452;51.938;4.624;2022-11-13T11:56:00;77131.34;;;-142.75;92.53
41632;BME280;37452;51.938;4.624;2022-11-13T11:58:36;77151.03;;;-142.75;97.37
41632;BME280;37452;51.938;4.624;2022-11-13T12:09:35;77217.97;;;-142.75;100.00
41632;BME280;37452;51.938;4.624;2022-11-13T12:23:01;77214.03;;;-142.75;100.00
41632;BME280;37452;51.938;4.624;2022-11-13T12:25:37;77223.88;;;-142.75;100.00
41632;BME280;37452;51.938;4.624;2022-11-13T12:28:42;77243.56;;;-142.75;100.00
41632;BME280;37452;51.938;4.624;2022-11-13T12:31:28;77225.84;;;-142.75;100.00
41632;BME280;37452;51.938;4.624;2022-11-13T12:34:33;77151.03;;;-142.75;100.00
41632;BME280;37452;51.938;4.624;2022-11-13T12:36:57;77123.47;;;-142.75;100.00
41632;BME280;37452;51.938;4.624;2022-11-13T12:42:09;77066.38;;;-142.75;99.01
41632;BME280;37452;51.938;4.624;2022-11-13T12:44:48;77072.28;;;-142.75;96.90
41632;BME280;37452;51.938;4.624;2022-11-13T12:47:16;77078.19;;;-142.75;97.19
41632;BME280;37452;51.938;4.624;2022-11-13T12:49:42;77054.56;;;-142.75;98.29
41632;BME280;37452;51.938;4.624;2022-11-13T12:52:27;76991.56;;;-142.75;96.03
41632;BME280;37452;51.938;4.624;2022-11-13T12:55:03;76964.00;;;-142.75;94.66
41632;BME280;37452;51.938;4.624;2022-11-13T12:57:30;76964.00;;;-142.75;93.25
41632;BME280;37452;51.938;4.624;2022-11-13T13:00:08;77001.41;;;-142.75;94.91
41632;BME280;37452;51.938;4.624;2022-11-13T13:03:14;77072.28;;;-142.75;97.98
41632;BME280;37452;51.938;4.624;2022-11-13T13:08:46;77062.44;;;-142.75;100.00
41632;BME280;37452;51.938;4.624;2022-11-13T13:11:22;77080.16;;;-142.75;100.00
41632;BME280;37452;51.938;4.624;2022-11-13T13:13:58;77117.56;;;-142.75;100.00
41632;BME280;37452;51.938;4.624;2022-11-13T13:16:29;77170.72;;;-142.75;100.00
41632;BME280;37452;51.938;4.624;2022-11-13T13:21:53;77265.22;;;-142.75;100.00
41632;BME280;37452;51.938;4.624;2022-11-13T13:24:39;77298.69;;;-142.75;100.00
41632;BME280;37452;51.938;4.624;2022-11-13T13:27:23;77349.88;;;-142.75;100.00
41632;BME280;37452;51.938;4.624;2022-11-13T13:29:48;77367.59;;;-142.75;100.00
41632;BME280;37452;51.938;4.624;2022-11-13T13:32:16;77365.63;;;-142.75;100.00
41632;BME280;37452;51.938;4.624;2022-11-13T13:34:58;77373.50;;;-142.75;100.00
41632;BME280;37452;51.938;4.624;2022-11-13T13:48:20;77357.75;;;-142.75;100.00
41632;BME280;37452;51.938;4.624;2022-11-13T13:50:49;77353.81;;;-142.75;100.00